Time;durP1;ratioP1;P1;durP2;ratioP2;P2;SDS_P1;SDS_P2;PMS_P1;PMS_P2;Temp;Humidity;BMP_temperature;BMP_pressure;BME280_temperature;BME280_humidity;BME280_pressure;Samples;Min_cycle;Max_cycle;Signal;HPM_P1;HPM_P2
2021/08/27 00:02:19;;;;;;;3.00;1.80;;;;;;;12.36;100.00;100108.53;2616034;31;20030;-50
2021/08/27 00:04:47;;;;;;;8.32;2.00;;;;;;;12.31;100.00;100099.94;2615492;31;20030;-54
2021/08/27 00:07:14;;;;;;;3.22;2.08;;;;;;;12.18;100.00;100106.63;2614991;36;20041;-57
2021/08/27 00:09:41;;;;;;;2.40;1.95;;;;;;;12.12;100.00;100111.72;2615928;31;20038;-57
2021/08/27 00:12:08;;;;;;;3.47;2.03;;;;;;;12.27;100.00;100111.00;2615352;31;20035;-57
2021/08/27 00:14:36;;;;;;;5.50;2.47;;;;;;;12.18;100.00;100103.22;2615344;31;20061;-56
2021/08/27 00:17:03;;;;;;;7.88;2.55;;;;;;;12.22;100.00;100108.41;2615351;36;20597;-55
2021/08/27 00:19:30;;;;;;;5.32;2.38;;;;;;;12.55;100.00;100108.69;2614848;36;20078;-54
2021/08/27 00:21:57;;;;;;;2.05;1.83;;;;;;;12.74;100.00;100108.84;2615380;31;20042;-50
2021/08/27 00:24:24;;;;;;;4.03;2.08;;;;;;;12.39;100.00;100113.69;2615496;31;20034;-56
2021/08/27 00:26:51;;;;;;;2.65;1.90;;;;;;;12.45;100.00;100116.31;2614797;36;20562;-52
2021/08/27 00:29:19;;;;;;;6.40;2.38;;;;;;;12.54;100.00;100112.09;2615331;31;20031;-56
2021/08/27 00:31:46;;;;;;;4.90;2.10;;;;;;;12.69;100.00;100099.38;2615637;31;20653;-53
2021/08/27 00:34:13;;;;;;;5.30;2.15;;;;;;;12.69;100.00;100101.94;2614864;36;20042;-53
2021/08/27 00:36:40;;;;;;;4.38;2.40;;;;;;;12.51;100.00;100104.38;2615141;36;20037;-51
2021/08/27 00:39:07;;;;;;;4.13;2.10;;;;;;;12.67;100.00;100108.78;2615982;31;20566;-59
2021/08/27 00:41:35;;;;;;;4.07;2.00;;;;;;;12.53;100.00;100105.25;2615020;31;20037;-50
2021/08/27 00:44:02;;;;;;;3.08;2.20;;;;;;;12.75;100.00;100101.97;2615491;31;20034;-51
2021/08/27 00:46:29;;;;;;;2.97;2.03;;;;;;;12.70;100.00;100095.94;2616035;31;20045;-55
2021/08/27 00:48:56;;;;;;;3.17;2.28;;;;;;;12.78;100.00;100098.59;2614694;36;20578;-60
2021/08/27 00:51:23;;;;;;;2.35;1.83;;;;;;;12.52;100.00;100093.25;2615805;31;20030;-55
2021/08/27 00:53:50;;;;;;;5.32;2.08;;;;;;;12.57;100.00;100097.59;2615303;31;20065;-53
2021/08/27 00:56:18;;;;;;;2.40;2.00;;;;;;;12.64;100.00;100101.91;2615041;31;20039;-58
2021/08/27 00:58:45;;;;;;;3.55;2.20;;;;;;;12.60;100.00;100100.16;2614769;36;20034;-59
2021/08/27 01:01:12;;;;;;;3.03;2.72;;;;;;;12.43;100.00;100102.59;2615356;36;20439;-58
2021/08/27 01:03:40;;;;;;;4.72;2.17;;;;;;;12.45;100.00;100100.91;2615062;36;20439;-53
2021/08/27 01:06:15;;;;;;;3.13;2.15;;;;;;;12.64;100.00;100098.47;2614893;36;20030;-55
2021/08/27 01:08:53;;;;;;;2.58;2.00;;;;;;;12.62;100.00;100100.19;2579362;31;2005670;-57
2021/08/27 01:11:28;;;;;;;2.30;2.10;;;;;;;12.58;100.00;100101.88;2615024;36;20496;-56
2021/08/27 01:14:02;;;;;;;4.25;2.60;;;;;;;12.49;100.00;100101.78;2615452;31;20030;-59
2021/08/27 01:16:40;;;;;;;2.13;2.03;;;;;;;12.67;100.00;100098.53;2615380;31;20031;-59
2021/08/27 01:19:25;;;;;;;5.47;2.08;;;;;;;12.70;100.00;100107.09;2615454;31;20555;-58
2021/08/27 01:21:55;;;;;;;2.50;2.30;;;;;;;12.66;100.00;100101.91;2578679;36;2004410;-56
2021/08/27 01:24:26;;;;;;;2.92;2.20;;;;;;;12.73;100.00;100106.25;2614875;36;20034;-56
2021/08/27 01:26:59;;;;;;;3.28;1.98;;;;;;;12.63;100.00;100102.75;2614893;36;20555;-59
2021/08/27 01:29:47;;;;;;;1.70;1.60;;;;;;;12.62;100.00;100110.47;2616005;31;20061;-55
2021/08/27 01:32:20;;;;;;;2.92;2.33;;;;;;;12.79;100.00;100111.44;2578987;36;2004689;-59
2021/08/27 01:34:50;;;;;;;3.15;2.05;;;;;;;12.76;100.00;100119.13;2615741;31;20662;-59
2021/08/27 01:37:21;;;;;;;4.05;2.40;;;;;;;12.50;100.00;100113.78;2614556;36;20026;-56
2021/08/27 01:39:51;;;;;;;2.38;1.90;;;;;;;12.81;100.00;100114.03;2616114;31;20038;-58
2021/08/27 01:42:22;;;;;;;3.90;2.30;;;;;;;12.66;100.00;100107.94;2615307;31;20034;-55
2021/08/27 01:44:53;;;;;;;2.90;2.03;;;;;;;12.65;100.00;100113.03;2614593;36;20039;-53
2021/08/27 01:47:25;;;;;;;3.25;2.45;;;;;;;12.71;100.00;100111.41;2615238;31;20037;-53
2021/08/27 01:49:53;;;;;;;3.45;2.45;;;;;;;12.85;100.00;100110.59;2614567;36;20034;-51
2021/08/27 01:52:21;;;;;;;4.22;2.50;;;;;;;12.81;100.00;100108.91;2615366;31;20039;-53
2021/08/27 01:54:49;;;;;;;3.25;2.22;;;;;;;12.65;100.00;100110.47;2615352;31;20034;-56
2021/08/27 01:57:17;;;;;;;5.95;2.50;;;;;;;12.62;100.00;100103.63;2614263;36;20042;-57
2021/08/27 01:59:44;;;;;;;3.85;2.28;;;;;;;12.77;100.00;100110.56;2615896;31;20570;-56
2021/08/27 02:02:14;;;;;;;3.65;2.40;;;;;;;12.48;100.00;100111.22;2614437;36;20042;-56
2021/08/27 02:04:51;;;;;;;2.83;2.50;;;;;;;12.66;100.00;100110.50;2615878;31;20563;-57
2021/08/27 02:07:19;;;;;;;2.80;2.20;;;;;;;12.83;100.00;100112.31;2615109;31;20042;-57
2021/08/27 02:09:50;;;;;;;2.83;2.30;;;;;;;12.84;100.00;100114.03;2615299;31;20061;-58
2021/08/27 02:12:19;;;;;;;3.47;2.58;;;;;;;12.74;100.00;100108.84;2614666;36;20582;-54
2021/08/27 02:14:52;;;;;;;3.92;2.85;;;;;;;12.68;100.00;100106.22;2615440;31;20030;-56
2021/08/27 02:17:19;;;;;;;3.58;2.78;;;;;;;12.61;100.00;100106.16;2615324;31;20078;-55
2021/08/27 02:19:46;;;;;;;4.55;2.80;;;;;;;12.55;100.00;100101.84;2615126;31;20581;-51
2021/08/27 02:22:16;;;;;;;4.65;3.03;;;;;;;12.84;100.00;100098.63;2615291;31;20042;-55
2021/08/27 02:24:55;;;;;;;5.05;2.80;;;;;;;12.83;100.00;100096.91;2617472;31;20049;-56
2021/08/27 02:27:23;;;;;;;5.82;2.60;;;;;;;12.87;100.00;100096.94;2617332;31;20478;-58
2021/08/27 02:29:55;;;;;;;4.40;2.75;;;;;;;12.88;100.00;100101.22;2615145;36;20814;-53
2021/08/27 02:32:25;;;;;;;3.97;2.88;;;;;;;12.83;100.00;100091.75;2616241;31;20042;-55
2021/08/27 02:34:54;;;;;;;7.65;3.20;;;;;;;12.63;100.00;100089.91;2616816;31;20026;-54
2021/08/27 02:37:23;;;;;;;5.10;2.75;;;;;;;12.62;100.00;100097.63;2614977;36;20040;-57
2021/08/27 02:39:50;;;;;;;3.30;2.92;;;;;;;12.54;100.00;100094.13;2615257;36;20061;-56
2021/08/27 02:42:18;;;;;;;5.25;3.28;;;;;;;12.53;100.00;100102.69;2615249;36;20044;-58
2021/08/27 02:44:45;;;;;;;3.58;3.28;;;;;;;12.46;100.00;100094.06;2615296;36;20053;-59
2021/08/27 02:47:13;;;;;;;4.63;3.28;;;;;;;12.54;100.00;100094.13;2615088;36;20053;-60
2021/08/27 02:49:40;;;;;;;7.70;3.15;;;;;;;12.53;100.00;100094.97;2615213;36;20492;-58
2021/08/27 02:52:28;;;;;;;5.10;3.40;;;;;;;12.60;100.00;100082.19;2615699;36;20458;-54
2021/08/27 02:55:16;;;;;;;4.15;3.75;;;;;;;12.64;100.00;100083.06;2579641;36;2004395;-55
2021/08/27 02:57:58;;;;;;;3.90;3.50;;;;;;;12.54;100.00;100087.28;2579847;31;2004493;-57
2021/08/27 03:00:28;;;;;;;7.35;3.08;;;;;;;12.58;100.00;100086.47;2615007;36;20034;-54
2021/08/27 03:02:56;;;;;;;5.43;3.60;;;;;;;12.52;100.00;100078.69;2615347;36;20638;-56
2021/08/27 03:05:29;;;;;;;4.43;3.45;;;;;;;12.61;100.00;100086.47;2615412;36;20034;-54
2021/08/27 03:08:05;;;;;;;3.90;3.60;;;;;;;12.49;100.00;100082.09;2614939;36;20061;-58
2021/08/27 03:10:44;;;;;;;5.38;3.85;;;;;;;12.31;100.00;100071.69;2615279;36;20038;-56
2021/08/27 03:13:18;;;;;;;6.03;3.92;;;;;;;12.49;100.00;100073.53;2579137;31;2004400;-57
2021/08/27 03:15:53;;;;;;;5.10;3.53;;;;;;;12.55;100.00;100070.16;2615231;36;20166;-58
2021/08/27 03:18:44;;;;;;;8.05;4.15;;;;;;;12.72;100.00;100073.72;2616009;31;20030;-60
2021/08/27 03:21:33;;;;;;;5.38;3.60;;;;;;;12.61;100.00;100071.06;2579411;31;2005417;-57
2021/08/27 03:24:31;;;;;;;6.53;4.20;;;;;;;12.70;100.00;100072.81;2615185;36;20046;-57
2021/08/27 03:27:20;;;;;;;5.85;3.47;;;;;;;12.74;100.00;100077.16;2578830;36;2004303;-55
2021/08/27 03:29:56;;;;;;;7.45;3.72;;;;;;;12.54;100.00;100071.88;2579213;31;2004565;-58
2021/08/27 03:32:24;;;;;;;;;;;;;;;12.82;100.00;100082.34;2615322;36;20031;-55
2021/08/27 03:34:52;;;;;;;3.72;3.40;;;;;;;12.81;100.00;100071.22;2615348;31;19950;-56
2021/08/27 03:37:20;;;;;;;5.25;3.60;;;;;;;12.83;100.00;100068.63;2615081;31;20038;-58
2021/08/27 03:39:49;;;;;;;4.47;3.55;;;;;;;12.79;100.00;100066.91;2615060;36;20030;-60
2021/08/27 03:42:18;;;;;;;4.63;3.30;;;;;;;12.77;100.00;100064.34;2615154;36;20052;-58
2021/08/27 03:44:47;;;;;;;4.93;3.92;;;;;;;12.57;100.00;100056.50;2614915;36;20034;-56
2021/08/27 03:47:15;;;;;;;7.80;3.63;;;;;;;12.68;100.00;100057.41;2615058;36;20027;-55
2021/08/27 03:49:43;;;;;;;4.90;3.50;;;;;;;12.69;100.00;100056.56;2615051;36;20065;-54
2021/08/27 03:52:12;;;;;;;6.35;4.10;;;;;;;12.47;100.00;100046.97;2615033;36;20030;-56
2021/08/27 03:54:39;;;;;;;4.15;3.80;;;;;;;12.63;100.00;100055.66;2615830;31;20042;-58
2021/08/27 03:57:08;;;;;;;5.35;3.90;;;;;;;12.66;100.00;100056.56;2615294;31;20053;-55
2021/08/27 03:59:37;;;;;;;5.88;3.63;;;;;;;12.73;100.00;100057.44;2614744;31;20065;-56
2021/08/27 04:02:06;;;;;;;7.18;3.75;;;;;;;12.67;100.00;100060.84;2615185;31;20035;-57
2021/08/27 04:04:33;;;;;;;4.68;3.17;;;;;;;12.59;100.00;100054.78;2615386;31;20022;-58
2021/08/27 04:07:02;;;;;;;4.75;3.90;;;;;;;12.60;100.00;100053.06;2616417;31;20411;-59
2021/08/27 04:09:32;;;;;;;4.38;3.50;;;;;;;12.73;100.00;100054.88;2615373;31;20034;-56
2021/08/27 04:12:02;;;;;;;5.25;3.78;;;;;;;12.79;100.00;100052.34;2615266;31;20037;-59
2021/08/27 04:14:33;;;;;;;4.07;3.42;;;;;;;12.43;100.00;100048.69;2614790;36;20573;-59
2021/08/27 04:17:01;;;;;;;5.75;2.97;;;;;;;12.70;100.00;100053.13;2614830;31;20578;-57
2021/08/27 04:19:28;;;;;;;6.15;3.70;;;;;;;12.64;100.00;100052.25;2615633;31;20570;-57
2021/08/27 04:21:56;;;;;;;6.05;3.75;;;;;;;12.44;100.00;100047.84;2615953;31;20029;-58
2021/08/27 04:24:25;;;;;;;4.05;3.40;;;;;;;12.75;100.00;100048.03;2615531;31;20038;-59
2021/08/27 04:26:53;;;;;;;5.13;3.40;;;;;;;12.78;100.00;100047.19;2614764;36;20042;-58
2021/08/27 04:29:20;;;;;;;8.30;3.67;;;;;;;12.57;100.00;100053.03;2615046;31;20677;-59
2021/08/27 04:31:47;;;;;;;5.80;4.05;;;;;;;12.27;100.00;100051.09;2615622;31;20030;-56
2021/08/27 04:34:14;;;;;;;9.02;4.35;;;;;;;12.07;100.00;100049.22;2614794;36;20030;-58
2021/08/27 04:36:41;;;;;;;5.75;3.90;;;;;;;12.10;100.00;100050.94;2614976;36;20030;-59
2021/08/27 04:39:09;;;;;;;6.40;4.05;;;;;;;12.05;100.00;100045.78;2614748;36;20061;-58
2021/08/27 04:41:36;;;;;;;7.90;3.88;;;;;;;12.05;100.00;100044.91;2614607;36;20488;-55
2021/08/27 04:44:03;;;;;;;6.78;4.40;;;;;;;12.22;100.00;100035.66;2614668;36;20042;-57
2021/08/27 04:46:31;;;;;;;4.50;3.00;;;;;;;12.35;100.00;100046.91;2615428;31;20038;-57
2021/08/27 04:48:58;;;;;;;4.88;3.90;;;;;;;12.17;100.00;100038.19;2614692;36;20045;-55
2021/08/27 04:51:26;;;;;;;8.40;3.90;;;;;;;12.20;100.00;100042.47;2615441;31;20578;-58
2021/08/27 04:53:53;;;;;;;3.85;3.38;;;;;;;12.40;100.00;100045.22;2615206;31;20034;-54
2021/08/27 04:56:21;;;;;;;4.30;3.30;;;;;;;12.64;100.00;100047.97;2615241;36;20454;-58
2021/08/27 04:58:48;;;;;;;3.40;2.97;;;;;;;12.80;100.00;100046.34;2615244;31;20037;-59
2021/08/27 05:01:15;;;;;;;4.65;2.95;;;;;;;12.63;100.00;100053.09;2614643;36;20034;-55
2021/08/27 05:03:43;;;;;;;2.05;1.83;;;;;;;12.56;100.00;100051.31;2615132;31;20034;-57
2021/08/27 05:06:14;;;;;;;2.50;2.10;;;;;;;12.72;100.00;100054.03;2615102;36;20034;-59
2021/08/27 05:08:41;;;;;;;1.75;1.65;;;;;;;12.96;100.00;100053.31;2614681;36;20053;-58
2021/08/27 05:11:08;;;;;;;1.95;1.80;;;;;;;13.11;100.00;100056.81;2615044;36;20061;-58
2021/08/27 05:13:36;;;;;;;2.22;1.40;;;;;;;13.05;100.00;100057.66;2614950;36;20038;-61
2021/08/27 05:16:03;;;;;;;1.58;1.42;;;;;;;12.98;100.00;100055.88;2614739;36;20034;-57
2021/08/27 05:18:31;;;;;;;1.55;1.45;;;;;;;13.63;100.00;100057.03;2615704;31;20065;-59
2021/08/27 05:20:58;;;;;;;1.98;1.27;;;;;;;13.50;100.00;100056.16;2614901;36;20049;-57
2021/08/27 05:23:25;;;;;;;1.98;1.40;;;;;;;13.37;100.00;100057.84;2615224;31;20039;-58
2021/08/27 05:25:53;;;;;;;1.60;1.50;;;;;;;13.39;100.00;100068.97;2614768;36;20026;-55
2021/08/27 05:28:20;;;;;;;2.17;1.30;;;;;;;14.13;100.00;100066.59;2614617;36;20076;-56
2021/08/27 05:30:47;;;;;;;1.05;0.95;;;;;;;13.96;100.00;100067.44;2614696;36;20035;-60
2021/08/27 05:33:14;;;;;;;2.72;1.30;;;;;;;13.76;100.00;100061.38;2614946;36;20594;-57
2021/08/27 05:35:41;;;;;;;1.60;1.20;;;;;;;13.65;100.00;100063.94;2615051;31;20038;-57
2021/08/27 05:38:09;;;;;;;1.00;1.00;;;;;;;13.81;100.00;100064.81;2616464;31;20026;-58
2021/08/27 05:40:36;;;;;;;1.00;1.00;;;;;;;13.64;100.00;100062.22;2619643;31;20526;-58
2021/08/27 05:43:03;;;;;;;0.98;0.95;;;;;;;13.93;100.00;100070.00;2620145;36;20030;-59
2021/08/27 05:45:30;;;;;;;0.80;0.80;;;;;;;14.08;100.00;100064.00;2614662;36;20057;-60
2021/08/27 05:47:58;;;;;;;1.23;0.90;;;;;;;13.99;100.00;100067.44;2614740;36;20030;-59
2021/08/27 05:50:25;;;;;;;0.68;0.68;;;;;;;13.65;100.00;100065.66;2614879;36;20035;-55
2021/08/27 05:52:52;;;;;;;0.57;0.50;;;;;;;14.46;100.00;100076.06;2614549;36;20038;-58
2021/08/27 05:55:19;;;;;;;1.90;0.75;;;;;;;14.21;100.00;100075.19;2614624;31;20046;-58
2021/08/27 05:57:46;;;;;;;1.17;0.55;;;;;;;14.25;100.00;100072.63;2613795;36;20027;-47
2021/08/27 06:00:14;;;;;;;0.43;0.43;;;;;;;14.61;100.00;100082.97;2614849;31;20042;-46
2021/08/27 06:02:41;;;;;;;1.27;0.60;;;;;;;14.58;100.00;100075.25;2614833;36;20030;-48
2021/08/27 06:05:09;;;;;;;1.77;0.55;;;;;;;14.62;100.00;100072.66;2614687;36;20034;-45
2021/08/27 06:07:36;;;;;;;1.17;0.95;;;;;;;14.22;100.00;100079.47;2614063;36;20027;-47
2021/08/27 06:10:04;;;;;;;1.33;0.82;;;;;;;13.96;100.00;100072.59;2615257;31;20031;-49
2021/08/27 06:12:31;;;;;;;2.33;1.13;;;;;;;14.19;100.00;100071.75;2614348;36;20038;-46
2021/08/27 06:14:59;;;;;;;1.10;1.00;;;;;;;14.08;100.00;100086.34;2614983;36;20438;-48
2021/08/27 06:17:26;;;;;;;2.78;1.98;;;;;;;13.96;100.00;100079.47;2614387;36;20034;-45
2021/08/27 06:19:53;;;;;;;1.67;1.58;;;;;;;13.72;100.00;100081.09;2614406;31;20030;-45
2021/08/27 06:22:20;;;;;;;2.15;1.20;;;;;;;13.94;100.00;100076.00;2614911;36;20415;-50
2021/08/27 06:24:47;;;;;;;1.17;0.98;;;;;;;13.46;100.00;100086.16;2617387;31;20039;-46
2021/08/27 06:27:15;;;;;;;1.35;1.00;;;;;;;13.34;100.00;100087.81;2614202;36;20030;-47
2021/08/27 06:29:42;;;;;;;1.05;1.00;;;;;;;13.40;100.00;100086.16;2613971;36;20023;-48
2021/08/27 06:32:09;;;;;;;1.60;1.50;;;;;;;13.94;100.00;100094.88;2613572;36;20034;-45
2021/08/27 06:34:37;;;;;;;1.83;1.65;;;;;;;13.99;100.00;100095.75;2614085;36;20034;-47
2021/08/27 06:37:04;;;;;;;1.02;0.90;;;;;;;13.99;100.00;100089.75;2613405;31;20038;-45
2021/08/27 06:39:32;;;;;;;1.63;1.48;;;;;;;13.99;100.00;100095.75;2613516;36;20069;-47
2021/08/27 06:42:05;;;;;;;1.42;0.80;;;;;;;14.30;100.00;100098.38;2613845;36;20030;-49
2021/08/27 06:44:33;;;;;;;1.15;0.70;;;;;;;13.98;100.00;100096.59;2613387;36;20041;-45
2021/08/27 06:47:01;;;;;;;1.67;0.75;;;;;;;14.14;100.00;100094.94;2614052;36;20165;-48
2021/08/27 06:49:28;;;;;;;1.40;0.80;;;;;;;14.06;100.00;100098.34;2614523;31;20031;-46
2021/08/27 06:51:55;;;;;;;1.10;0.90;;;;;;;14.38;100.00;100100.97;2614433;31;20030;-46
2021/08/27 06:54:22;;;;;;;1.75;0.98;;;;;;;14.23;100.00;100099.22;2614356;36;20052;-47
2021/08/27 06:56:49;;;;;;;0.75;0.75;;;;;;;14.47;100.00;100109.56;2614598;31;20790;-45
2021/08/27 06:59:17;;;;;;;2.33;0.93;;;;;;;14.52;100.00;100100.16;2614651;36;20454;-48
2021/08/27 07:01:44;;;;;;;0.88;0.88;;;;;;;14.42;100.00;100108.72;2614694;31;20065;-46
2021/08/27 07:04:11;;;;;;;1.13;0.82;;;;;;;14.69;100.00;100105.28;2614764;36;20039;-49
2021/08/27 07:06:38;;;;;;;1.42;0.70;;;;;;;14.40;100.00;100104.41;2615053;31;20050;-48
2021/08/27 07:09:05;;;;;;;0.80;0.80;;;;;;;14.56;100.00;100106.16;2614254;36;20578;-47
2021/08/27 07:11:32;;;;;;;1.85;0.80;;;;;;;14.53;100.00;100106.16;2614296;36;20031;-47
2021/08/27 07:14:03;;;;;;;1.70;1.10;;;;;;;14.55;100.00;100104.41;2615374;31;20760;-46
2021/08/27 07:16:30;;;;;;;1.60;0.90;;;;;;;14.37;100.00;100107.81;2614387;36;20570;-49
2021/08/27 07:18:57;;;;;;;2.03;1.10;;;;;;;14.40;100.00;100112.97;2615188;31;20122;-48
2021/08/27 07:21:24;;;;;;;1.45;1.10;;;;;;;14.19;100.00;100113.81;2614404;36;20019;-46
2021/08/27 07:23:51;;;;;;;0.93;0.90;;;;;;;13.94;100.00;100120.63;2614295;31;20038;-47
2021/08/27 07:26:18;;;;;;;1.80;1.10;;;;;;;14.06;100.00;100117.22;2615984;31;20057;-46
2021/08/27 07:28:45;;;;;;;3.50;1.35;;;;;;;14.35;100.00;100119.00;2613916;36;20035;-48
2021/08/27 07:31:13;;;;;;;1.60;1.17;;;;;;;14.37;100.00;100119.84;2615346;31;20065;-45
2021/08/27 07:33:41;;;;;;;2.13;1.15;;;;;;;16.14;100.00;100123.75;2615183;31;20068;-46
2021/08/27 07:36:08;;;;;;;1.23;0.80;;;;;;;16.99;100.00;100124.84;2614733;31;20030;-46
2021/08/27 07:38:37;;;;;;;1.40;1.05;;;;;;;16.07;100.00;100122.06;2613481;36;20042;-48
2021/08/27 07:41:04;;;;;;;1.15;0.70;;;;;;;16.72;100.00;100124.22;2613121;36;20042;-50
2021/08/27 07:43:31;;;;;;;1.38;0.85;;;;;;;16.14;100.00;100126.34;2613743;36;20050;-47
2021/08/27 07:45:58;;;;;;;2.67;1.00;;;;;;;16.44;100.00;100128.72;2614929;31;20455;-46
2021/08/27 07:48:27;;;;;;;1.67;0.80;;;;;;;16.28;100.00;100135.72;2613065;36;20038;-45
2021/08/27 07:50:54;;;;;;;3.00;0.77;;;;;;;16.17;100.00;100127.16;2614163;31;20031;-47
2021/08/27 07:53:23;;;;;;;1.15;0.95;;;;;;;15.85;100.00;100136.81;2614692;31;20813;-46
2021/08/27 07:55:50;;;;;;;2.75;1.17;;;;;;;15.21;100.00;100123.28;2614160;36;20479;-48
2021/08/27 07:58:18;;;;;;;1.05;1.00;;;;;;;15.21;100.00;100130.16;2613868;36;20049;-46
2021/08/27 08:00:45;;;;;;;1.63;0.98;;;;;;;15.08;100.00;100131.88;2613937;31;20080;-49
2021/08/27 08:03:12;;;;;;;2.45;1.13;;;;;;;15.53;100.00;100133.50;2614228;36;20042;-46
2021/08/27 08:05:39;;;;;;;2.25;1.00;;;;;;;15.31;100.00;100128.41;2614172;31;20087;-49
2021/08/27 08:08:06;;;;;;;1.13;0.93;;;;;;;15.15;100.00;100131.00;2614135;36;20038;-46
2021/08/27 08:10:34;;;;;;;2.15;1.45;;;;;;;15.46;100.00;100133.50;2613531;36;20069;-50
2021/08/27 08:13:01;;;;;;;1.38;1.10;;;;;;;15.11;100.00;100138.75;2614789;31;20044;-46
2021/08/27 08:15:29;;;;;;;2.20;1.40;;;;;;;15.07;100.00;100129.28;2614209;36;20129;-49
2021/08/27 08:17:56;;;;;;;1.80;1.55;;;;;;;14.91;100.00;100131.03;2614467;31;20589;-50
2021/08/27 08:20:23;;;;;;;1.60;1.50;;;;;;;14.92;100.00;100137.91;2613311;36;20031;-46
2021/08/27 08:23:00;;;;;;;1.70;1.60;;;;;;;15.17;100.00;100142.19;2613941;31;20582;-46
2021/08/27 08:25:27;;;;;;;1.67;1.42;;;;;;;15.40;100.00;100136.97;2613751;31;20570;-48
2021/08/27 08:27:55;;;;;;;1.50;1.40;;;;;;;15.56;100.00;100137.78;2614060;31;20554;-46
2021/08/27 08:30:23;;;;;;;2.15;1.38;;;;;;;15.95;100.00;100147.13;2613488;36;20057;-50
2021/08/27 08:32:51;;;;;;;0.95;0.70;;;;;;;16.38;100.00;100141.69;2613570;31;20055;-49
2021/08/27 08:35:18;;;;;;;1.52;0.75;;;;;;;16.61;100.00;100148.41;2613944;36;20965;-46
2021/08/27 08:37:45;;;;;;;1.70;0.77;;;;;;;16.48;100.00;100150.22;2613631;36;20061;-50
2021/08/27 08:40:14;;;;;;;1.23;0.90;;;;;;;16.66;100.00;100152.66;2613287;31;20035;-48
2021/08/27 08:42:43;;;;;;;1.50;0.68;;;;;;;17.62;94.05;100145.72;2613381;36;20026;-46
2021/08/27 08:45:10;;;;;;;0.52;0.52;;;;;;;20.17;85.14;100160.50;2613961;31;20038;-47
2021/08/27 08:47:42;;;;;;;0.52;0.43;;;;;;;19.00;92.36;100159.34;2613387;36;20196;-52
2021/08/27 08:50:11;;;;;;;0.90;0.60;;;;;;;18.08;90.65;100155.53;2613597;36;20031;-48
2021/08/27 08:52:41;;;;;;;1.85;0.85;;;;;;;16.28;97.67;100158.97;2613547;31;20034;-45
2021/08/27 08:55:10;;;;;;;1.05;0.43;;;;;;;17.09;99.92;100151.47;2613796;31;20034;-46
2021/08/27 08:57:38;;;;;;;2.13;0.70;;;;;;;15.70;100.00;100151.50;2614645;31;20035;-48
2021/08/27 09:00:06;;;;;;;0.50;0.50;;;;;;;15.71;100.00;100158.38;2613586;31;20065;-46
2021/08/27 09:02:33;;;;;;;0.50;0.50;;;;;;;15.66;100.00;100159.28;2613555;36;20165;-46
2021/08/27 09:05:01;;;;;;;0.85;0.68;;;;;;;15.68;100.00;100153.25;2614111;31;20037;-47
2021/08/27 09:07:28;;;;;;;1.05;0.57;;;;;;;15.82;100.00;100163.53;2613556;31;20038;-46
2021/08/27 09:09:58;;;;;;;0.85;0.80;;;;;;;15.74;100.00;100157.53;2613692;36;20053;-47
2021/08/27 09:12:29;;;;;;;1.35;0.60;;;;;;;15.57;100.00;100156.69;2613791;36;20029;-49
2021/08/27 09:15:03;;;;;;;0.85;0.60;;;;;;;15.64;100.00;100161.00;2613597;36;20027;-46
2021/08/27 09:17:36;;;;;;;1.23;0.75;;;;;;;15.69;100.00;100159.28;2614182;31;20083;-45
2021/08/27 09:20:07;;;;;;;2.30;0.70;;;;;;;15.71;100.00;100160.09;2614817;31;20535;-49
2021/08/27 09:22:57;;;;;;;1.05;0.90;;;;;;;15.96;100.00;100161.72;2614517;31;20026;-46
2021/08/27 09:25:36;;;;;;;0.90;0.90;;;;;;;15.91;100.00;100167.78;2577509;36;2004618;-48
2021/08/27 09:28:16;;;;;;;2.40;0.70;;;;;;;16.04;100.00;100167.72;2614630;31;20030;-49
2021/08/27 09:30:56;;;;;;;2.38;1.02;;;;;;;16.23;100.00;100177.97;2580104;31;2004861;-46
2021/08/27 09:33:29;;;;;;;1.42;0.60;;;;;;;16.07;100.00;100171.16;2614195;36;20035;-45
2021/08/27 09:36:07;;;;;;;0.57;0.57;;;;;;;16.06;100.00;100166.84;2614758;31;20042;-47
2021/08/27 09:38:41;;;;;;;1.10;0.43;;;;;;;15.86;100.00;100170.41;2614419;31;20053;-48
2021/08/27 09:41:14;;;;;;;1.30;0.50;;;;;;;16.06;100.00;100174.59;2615928;31;20422;-46
2021/08/27 09:43:46;;;;;;;0.30;0.30;;;;;;;16.39;97.33;100174.41;2614435;36;20080;-45
2021/08/27 09:46:37;;;;;;;0.88;0.55;;;;;;;17.45;98.76;100174.38;2578923;31;2004283;-46
2021/08/27 09:49:26;;;;;;;0.82;0.43;;;;;;;17.38;100.00;100185.69;2614655;31;20518;-46
2021/08/27 09:51:54;;;;;;;2.60;0.57;;;;;;;18.27;97.24;100185.50;2578791;36;2004438;-45
2021/08/27 09:54:29;;;;;;;1.55;0.32;;;;;;;19.84;87.88;100201.91;2614293;36;20042;-45
2021/08/27 09:57:05;;;;;;;2.28;0.52;;;;;;;22.39;74.83;100201.59;2613608;36;20034;-45
2021/08/27 09:59:43;;;;;;;1.02;0.38;;;;;;;22.02;69.64;100197.44;2614255;36;20042;-46
2021/08/27 10:02:13;;;;;;;2.15;0.30;;;;;;;21.84;70.15;100204.03;2614121;36;20153;-47
2021/08/27 10:04:55;;;;;;;0.88;0.30;;;;;;;23.16;72.28;100197.34;2614027;36;20126;-48
2021/08/27 10:07:34;;;;;;;1.00;0.40;;;;;;;23.63;62.42;100203.56;2577700;36;2004286;-45
2021/08/27 10:10:05;;;;;;;1.00;0.35;;;;;;;24.99;61.57;100213.16;2614533;31;20593;-45
2021/08/27 10:12:34;;;;;;;0.70;0.40;;;;;;;22.93;66.82;100209.47;2614497;36;20057;-47
2021/08/27 10:15:03;;;;;;;3.65;0.40;;;;;;;25.85;59.21;100213.00;2614552;31;20038;-46
2021/08/27 10:17:30;;;;;;;1.77;0.40;;;;;;;26.59;54.05;100213.06;2615023;31;20431;-47
2021/08/27 10:19:58;;;;;;;0.30;0.30;;;;;;;26.62;52.04;100216.41;2614907;31;20450;-48
2021/08/27 10:22:25;;;;;;;0.35;0.20;;;;;;;25.55;52.17;100213.41;2613998;31;20065;-45
2021/08/27 10:24:53;;;;;;;1.17;0.28;;;;;;;26.17;50.61;100218.56;2613939;36;20033;-50
2021/08/27 10:27:21;;;;;;;0.95;0.20;;;;;;;25.40;54.29;100206.22;2615199;31;20041;-47
2021/08/27 10:29:56;;;;;;;0.30;0.30;;;;;;;23.05;64.30;100218.63;2614279;36;20027;-45
2021/08/27 10:32:39;;;;;;;1.60;0.65;;;;;;;21.12;69.46;100190.31;2615592;36;20157;-45
2021/08/27 10:35:14;;;;;;;1.40;0.80;;;;;;;25.40;57.52;100204.44;2614915;36;20051;-45
2021/08/27 10:37:49;;;;;;;1.25;0.60;;;;;;;25.26;54.91;100206.81;2614896;31;20554;-45
2021/08/27 10:40:22;;;;;;;0.52;0.50;;;;;;;27.63;48.20;100224.44;2578584;31;2004805;-47
2021/08/27 10:42:51;;;;;;;1.45;0.45;;;;;;;30.37;39.58;100228.84;2614724;31;20034;-44
2021/08/27 10:45:42;;;;;;;0.65;0.10;;;;;;;27.21;43.40;100227.50;2614316;31;20037;-45
2021/08/27 10:48:15;;;;;;;0.52;0.30;;;;;;;24.39;50.85;100228.66;2613545;36;20143;-45
2021/08/27 10:50:57;;;;;;;0.40;0.40;;;;;;;23.24;54.59;100216.25;2577878;31;2004560;-51
2021/08/27 10:53:30;;;;;;;1.13;0.98;;;;;;;21.39;57.51;100212.22;2614059;36;20474;-45
2021/08/27 10:56:06;;;;;;;2.40;2.20;;;;;;;20.90;62.07;100218.66;2614443;36;20549;-46
2021/08/27 10:58:43;;;;;;;1.40;1.30;;;;;;;20.83;63.64;100212.72;2614142;36;20034;-45
2021/08/27 11:01:35;;;;;;;1.40;1.30;;;;;;;20.35;65.88;100214.69;2614221;36;20653;-44
2021/08/27 11:04:12;;;;;;;2.83;1.50;;;;;;;19.74;69.33;100206.44;2578426;36;2004379;-45
2021/08/27 11:06:50;;;;;;;1.33;1.23;;;;;;;19.38;70.85;100210.56;2614151;36;20053;-44
2021/08/27 11:09:27;;;;;;;1.45;1.00;;;;;;;19.06;70.59;100200.75;2578504;31;2004944;-44
2021/08/27 11:12:22;;;;;;;1.50;1.40;;;;;;;19.76;68.07;100204.66;2615182;31;20033;-47
2021/08/27 11:14:54;;;;;;;1.40;1.30;;;;;;;19.79;68.67;100209.81;2578851;31;2004337;-44
2021/08/27 11:17:21;;;;;;;3.10;1.67;;;;;;;19.43;75.49;100213.06;2615042;31;20030;-44
2021/08/27 11:19:58;;;;;;;2.13;1.50;;;;;;;19.73;73.02;100207.31;2615066;31;20038;-45
2021/08/27 11:22:30;;;;;;;4.18;1.33;;;;;;;20.30;72.03;100216.56;2615852;31;20424;-44
2021/08/27 11:25:04;;;;;;;1.35;1.00;;;;;;;20.50;69.12;100208.31;2614762;36;20506;-44
2021/08/27 11:27:32;;;;;;;3.65;1.33;;;;;;;21.96;64.59;100213.28;2614283;36;20557;-46
2021/08/27 11:30:28;;;;;;;5.13;1.05;;;;;;;22.68;62.82;100217.19;2614229;36;20026;-44
2021/08/27 11:32:56;;;;;;;0.70;0.67;;;;;;;22.06;64.75;100215.56;2578405;36;2004407;-45